Time;durP1;ratioP1;P1;durP2;ratioP2;P2;SDS_P1;SDS_P2;PMS_P1;PMS_P2;Temp;Humidity;BMP_temperature;BMP_pressure;BME280_temperature;BME280_humidity;BME280_pressure;Samples;Min_cycle;Max_cycle;Signal;HPM_P1;HPM_P2
2023/08/05 14:42:25;;;;;;;1.35;1.25;;;;;;;33.98;28.15;99926.41;5085778;27;20408;-70
2023/08/05 14:44:51;;;;;;;1.40;1.30;;;;;;;36.08;25.73;99929.41;5083355;28;20052;-70
2023/08/05 14:47:17;;;;;;;1.50;1.40;;;;;;;37.96;23.32;99922.78;5035849;28;20148;-71
2023/08/05 14:49:43;;;;;;;0.70;0.70;;;;;;;38.80;22.25;99911.94;5042512;28;20448;-71
2023/08/05 14:52:09;;;;;;;1.33;1.23;;;;;;;37.41;23.38;99920.19;5007312;28;20090;-72
2023/08/05 14:54:35;;;;;;;0.85;0.85;;;;;;;37.49;23.70;99917.88;5024678;28;20045;-71
2023/08/05 14:57:01;;;;;;;1.33;1.23;;;;;;;36.34;25.04;99915.28;5039471;28;20574;-70
2023/08/05 14:59:29;;;;;;;;;;;;;;;37.12;24.25;99919.06;5018057;28;20409;-70
2023/08/05 15:01:55;;;;;;;1.42;1.33;;;;;;;38.13;22.81;99909.13;5060071;28;19939;-72
2023/08/05 15:04:21;;;;;;;2.35;2.25;;;;;;;38.64;22.29;99912.19;5059838;28;20049;-72
2023/08/05 15:06:47;;;;;;;1.50;1.40;;;;;;;38.94;21.76;99904.09;5051770;28;20045;-73
2023/08/05 15:09:14;;;;;;;0.80;0.80;;;;;;;39.14;21.62;99900.84;5042656;28;20052;-73
2023/08/05 15:11:41;;;;;;;1.50;1.40;;;;;;;39.08;21.91;99914.13;5064250;28;20040;-70
2023/08/05 15:14:08;;;;;;;1.50;1.40;;;;;;;39.14;21.73;99909.41;5045285;28;20048;-69
2023/08/05 15:16:36;;;;;;;1.50;1.40;;;;;;;39.50;21.40;99912.88;5042019;28;20436;-71
2023/08/05 15:19:02;;;;;;;1.50;1.40;;;;;;;39.95;21.13;99911.31;5043857;28;20516;-73
2023/08/05 15:21:29;;;;;;;1.50;1.40;;;;;;;40.41;20.49;99919.09;5062287;28;20053;-72
2023/08/05 15:23:55;;;;;;;1.17;1.17;;;;;;;39.21;21.45;99905.47;5059437;28;20045;-71
2023/08/05 15:26:21;;;;;;;1.50;1.40;;;;;;;38.83;22.16;99904.50;5060263;28;20562;-73
2023/08/05 15:28:47;;;;;;;1.50;1.40;;;;;;;39.04;21.93;99910.63;5058012;28;20110;-74
2023/08/05 15:31:19;;;;;;;1.50;1.40;;;;;;;39.47;21.35;99893.78;5057628;28;20071;-73
2023/08/05 15:33:47;;;;;;;1.50;1.40;;;;;;;40.03;21.11;99899.56;5044800;28;20576;-72
2023/08/05 15:36:14;;;;;;;1.50;1.40;;;;;;;39.61;20.85;99898.88;5062919;28;20126;-73
2023/08/05 15:38:40;;;;;;;1.50;1.40;;;;;;;39.61;21.42;99892.38;5062130;28;20353;-72
2023/08/05 15:41:06;;;;;;;1.40;1.30;;;;;;;39.88;21.09;99894.47;5055859;28;20067;-73
2023/08/05 15:43:33;;;;;;;1.40;1.30;;;;;;;40.19;20.65;99893.47;5061354;28;20092;-70
2023/08/05 15:46:00;;;;;;;1.40;1.30;;;;;;;40.13;22.49;99899.06;5045986;28;20048;-70
2023/08/05 15:48:26;;;;;;;1.40;1.30;;;;;;;39.64;22.18;99891.41;5062981;28;20409;-71
2023/08/05 15:51:00;;;;;;;1.50;1.40;;;;;;;39.43;21.85;99897.59;5041257;28;20045;-72
2023/08/05 15:53:26;;;;;;;1.40;1.30;;;;;;;39.55;21.50;99897.94;5042158;28;20045;-70
2023/08/05 15:55:58;;;;;;;;;;;;;;;39.40;22.16;99912.84;5043241;28;20139;-68
2023/08/05 15:58:24;;;;;;;0.60;0.60;;;;;;;38.24;22.65;99896.53;5048929;28;20375;-70
2023/08/05 16:00:57;;;;;;;;;;;;;;;36.02;25.35;99909.22;5047321;28;20052;-71
2023/08/05 16:03:23;;;;;;;0.40;0.40;;;;;;;34.21;27.90;99911.38;5041601;28;19925;-71
2023/08/05 16:05:58;;;;;;;0.40;0.40;;;;;;;33.00;30.39;99904.53;5048896;28;20067;-71
2023/08/05 16:08:26;;;;;;;0.40;0.40;;;;;;;32.18;31.14;99907.97;5047215;28;20460;-70
2023/08/05 16:11:00;;;;;;;0.32;0.32;;;;;;;31.58;32.51;99900.44;5050396;28;20523;-75
2023/08/05 16:13:26;;;;;;;0.30;0.30;;;;;;;31.07;32.80;99903.63;5048271;28;20047;-72
2023/08/05 16:15:52;;;;;;;0.30;0.30;;;;;;;30.65;33.43;99905.50;5048197;28;20045;-74
2023/08/05 16:18:18;;;;;;;0.30;0.30;;;;;;;30.37;34.06;99904.41;5045397;28;20055;-74
2023/08/05 16:20:44;;;;;;;0.30;0.30;;;;;;;30.16;34.79;99905.28;5045761;28;20131;-73
2023/08/05 16:23:10;;;;;;;0.30;0.30;;;;;;;29.98;35.38;99912.50;5046551;28;20069;-73
2023/08/05 16:25:38;;;;;;;0.20;0.20;;;;;;;29.82;36.07;99900.88;5031974;28;20045;-73
2023/08/05 16:28:04;;;;;;;0.30;0.30;;;;;;;29.69;36.77;99901.28;5048960;28;20154;-74
2023/08/05 16:30:30;;;;;;;0.30;0.30;;;;;;;29.50;36.96;99893.25;5041178;28;20052;-73
2023/08/05 16:32:56;;;;;;;0.30;0.30;;;;;;;29.35;36.96;99898.03;5036132;28;20052;-72
2023/08/05 16:35:22;;;;;;;0.30;0.30;;;;;;;29.21;37.09;99899.66;5045700;28;20087;-73
2023/08/05 16:37:49;;;;;;;0.30;0.30;;;;;;;29.10;37.21;99898.84;5063040;28;20139;-74
2023/08/05 16:40:15;;;;;;;;;;;;;;;29.06;37.70;99898.03;5030220;28;20053;-72
2023/08/05 16:42:43;;;;;;;0.30;0.30;;;;;;;28.98;38.14;99894.41;5048682;28;19995;-72
2023/08/05 16:45:10;;;;;;;0.30;0.30;;;;;;;28.89;37.99;99903.22;5043938;28;20311;-72
2023/08/05 16:47:37;;;;;;;0.30;0.30;;;;;;;28.82;38.39;99906.00;5029529;28;20582;-73
2023/08/05 16:50:04;;;;;;;0.55;0.30;;;;;;;28.73;38.57;99904.38;5015284;28;20060;-73
2023/08/05 16:52:30;;;;;;;;;;;;;;;28.67;38.71;99903.13;5047331;28;20064;-73
2023/08/05 16:54:56;;;;;;;0.20;0.20;;;;;;;28.59;38.60;99909.94;5029716;28;20026;-73
2023/08/05 16:57:22;;;;;;;0.30;0.30;;;;;;;28.52;38.95;99901.47;5046325;28;20095;-71
2023/08/05 16:59:50;;;;;;;0.30;0.30;;;;;;;28.44;38.69;99909.06;5047276;28;20416;-71
2023/08/05 17:02:16;;;;;;;0.20;0.20;;;;;;;28.38;39.43;99907.84;5046398;28;20053;-70
2023/08/05 17:04:42;;;;;;;0.25;0.25;;;;;;;28.30;39.40;99902.16;5043536;28;20043;-71
2023/08/05 17:07:08;;;;;;;0.30;0.30;;;;;;;28.22;39.67;99902.53;5029032;28;20049;-71
2023/08/05 17:09:34;;;;;;;0.30;0.30;;;;;;;28.16;39.90;99902.06;5032204;28;20127;-70
2023/08/05 17:12:01;;;;;;;0.28;0.28;;;;;;;28.07;40.44;99893.19;5039162;28;20520;-70
2023/08/05 17:14:27;;;;;;;0.20;0.20;;;;;;;28.00;40.43;99897.56;5044619;28;20052;-70
2023/08/05 17:16:54;;;;;;;0.30;0.30;;;;;;;27.93;40.63;99894.72;5029064;28;20044;-71
2023/08/05 17:19:21;;;;;;;0.30;0.30;;;;;;;27.88;40.39;99901.50;5047723;28;20071;-71
2023/08/05 17:21:47;;;;;;;0.30;0.30;;;;;;;27.82;40.68;99891.84;5030102;28;20063;-70
2023/08/05 17:24:13;;;;;;;0.30;0.30;;;;;;;27.77;40.92;99895.00;5028230;28;20599;-70
2023/08/05 17:26:39;;;;;;;0.20;0.20;;;;;;;27.67;41.06;99896.53;5045292;28;20139;-70
2023/08/05 17:29:06;;;;;;;0.20;0.20;;;;;;;27.60;41.32;99897.28;5046021;28;20059;-69
2023/08/05 17:31:32;;;;;;;0.30;0.30;;;;;;;27.53;41.75;99893.63;5048470;28;20057;-71
2023/08/05 17:33:59;;;;;;;0.20;0.20;;;;;;;27.47;42.41;99895.94;5049422;28;20044;-71
2023/08/05 17:36:27;;;;;;;0.20;0.20;;;;;;;27.41;42.19;99903.94;5047855;28;20329;-73
2023/08/05 17:38:53;;;;;;;0.20;0.20;;;;;;;27.36;43.23;99906.31;5048388;28;20051;-70
2023/08/05 17:41:19;;;;;;;0.20;0.20;;;;;;;27.25;44.33;99907.00;5044113;28;20532;-71
2023/08/05 17:43:45;;;;;;;0.30;0.30;;;;;;;27.15;44.88;99907.69;5025341;28;20048;-71
2023/08/05 17:46:11;;;;;;;0.30;0.30;;;;;;;27.00;45.27;99896.34;5043698;28;20072;-70
2023/08/05 17:48:37;;;;;;;0.30;0.30;;;;;;;26.93;45.32;99901.88;5046213;28;20445;-70
2023/08/05 17:51:05;;;;;;;0.20;0.20;;;;;;;26.89;45.14;99909.47;5044195;28;20079;-71
2023/08/05 17:53:31;;;;;;;0.20;0.20;;;;;;;26.86;44.80;99905.41;5046778;28;20048;-69
2023/08/05 17:55:57;;;;;;;0.20;0.20;;;;;;;26.87;45.73;99907.03;5046251;28;20095;-70
2023/08/05 17:58:23;;;;;;;0.22;0.22;;;;;;;26.80;46.18;99904.13;5047068;28;20060;-70
2023/08/05 18:00:49;;;;;;;0.22;0.22;;;;;;;26.78;46.13;99909.31;5027634;28;20053;-71
2023/08/05 18:03:16;;;;;;;0.30;0.30;;;;;;;26.73;46.22;99902.03;5045953;28;20049;-74
2023/08/05 18:05:43;;;;;;;0.20;0.20;;;;;;;26.65;46.33;99908.75;5043025;28;20053;-75
2023/08/05 18:08:11;;;;;;;0.20;0.20;;;;;;;26.65;46.44;99908.75;5030221;28;20069;-70
2023/08/05 18:10:40;;;;;;;0.30;0.30;;;;;;;26.58;46.78;99903.06;5048614;28;20036;-69
2023/08/05 18:13:07;;;;;;;0.30;0.30;;;;;;;26.49;46.86;99906.16;5036203;28;20246;-71
2023/08/05 18:15:34;;;;;;;0.30;0.30;;;;;;;26.45;46.75;99908.91;5038548;28;20048;-73
2023/08/05 18:18:01;;;;;;;0.22;0.22;;;;;;;26.44;46.63;99910.09;5037344;28;20057;-69
2023/08/05 18:20:29;;;;;;;0.20;0.20;;;;;;;26.42;46.53;99920.06;5033310;28;20068;-72
2023/08/05 18:22:55;;;;;;;0.30;0.30;;;;;;;26.44;46.19;99918.50;5015280;28;20055;-71
2023/08/05 18:25:22;;;;;;;0.30;0.30;;;;;;;26.47;46.24;99922.56;5034391;28;20326;-70
2023/08/05 18:27:49;;;;;;;0.30;0.30;;;;;;;26.50;46.05;99915.38;5004287;28;20053;-70
2023/08/05 18:30:15;;;;;;;0.20;0.20;;;;;;;26.49;46.30;99922.97;5022134;28;20053;-71
2023/08/05 18:32:41;;;;;;;0.30;0.30;;;;;;;26.44;46.19;99920.50;5022228;28;20054;-71
2023/08/05 18:35:08;;;;;;;0.30;0.30;;;;;;;26.40;46.55;99914.88;5021573;28;20045;-70
2023/08/05 18:37:34;;;;;;;0.20;0.20;;;;;;;26.41;46.66;99916.47;5022901;28;20059;-70
2023/08/05 18:40:00;;;;;;;0.20;0.20;;;;;;;26.38;46.43;99908.84;5021857;28;20118;-72
2023/08/05 18:42:28;;;;;;;0.20;0.20;;;;;;;26.39;46.94;99909.63;5006751;28;20489;-72
2023/08/05 18:44:57;;;;;;;0.20;0.20;;;;;;;26.35;46.99;99911.59;5003279;28;20069;-71
2023/08/05 18:47:23;;;;;;;0.30;0.30;;;;;;;26.32;47.37;99919.56;5022617;28;20231;-72
2023/08/05 18:49:49;;;;;;;0.28;0.28;;;;;;;26.33;47.44;99923.16;5026135;28;20730;-71
2023/08/05 18:52:17;;;;;;;0.30;0.30;;;;;;;26.27;47.74;99916.28;5025514;28;20115;-70
2023/08/05 18:54:44;;;;;;;0.30;0.30;;;;;;;26.24;47.71;99917.06;5022902;28;20546;-75
2023/08/05 18:57:10;;;;;;;0.30;0.30;;;;;;;26.22;47.93;99923.03;5021814;28;20095;-71
2023/08/05 18:59:38;;;;;;;0.30;0.30;;;;;;;26.18;48.53;99917.34;5024779;28;20064;-75
2023/08/05 19:02:05;;;;;;;0.20;0.20;;;;;;;26.08;49.18;99905.97;5026299;28;21874;-76
2023/08/05 19:04:31;;;;;;;0.20;0.20;;;;;;;26.02;49.49;99909.13;5045513;28;20049;-71
2023/08/05 19:06:58;;;;;;;0.20;0.20;;;;;;;25.91;49.46;99914.56;5042487;28;20515;-72
2023/08/05 19:09:25;;;;;;;0.20;0.20;;;;;;;25.80;49.71;99908.00;5042396;28;20530;-72
2023/08/05 19:11:51;;;;;;;0.20;0.20;;;;;;;25.75;50.02;99899.88;5026003;28;20147;-72
2023/08/05 19:14:20;;;;;;;0.20;0.20;;;;;;;25.70;49.88;99912.25;5044484;28;20443;-71
2023/08/05 19:16:47;;;;;;;0.22;0.22;;;;;;;25.68;50.00;99911.00;5009885;28;20049;-76
2023/08/05 19:19:13;;;;;;;0.30;0.30;;;;;;;25.65;50.29;99909.75;5044500;28;20048;-76
2023/08/05 19:21:39;;;;;;;0.30;0.30;;;;;;;25.65;50.11;99908.94;5043405;28;20182;-76
2023/08/05 19:24:05;;;;;;;0.30;0.30;;;;;;;25.65;49.85;99909.75;5041899;28;20053;-71
2023/08/05 19:26:32;;;;;;;0.30;0.30;;;;;;;25.63;50.05;99915.72;5045423;28;20048;-72
2023/08/05 19:28:58;;;;;;;0.20;0.20;;;;;;;25.63;50.33;99912.94;5049472;28;20524;-76
2023/08/05 19:31:24;;;;;;;0.20;0.20;;;;;;;25.60;50.48;99915.66;5044574;28;20171;-76
2023/08/05 19:33:52;;;;;;;0.30;0.30;;;;;;;25.56;50.84;99921.19;5043472;28;20053;-70
2023/08/05 19:36:19;;;;;;;0.30;0.30;;;;;;;25.55;50.80;99925.19;5032617;28;20190;-71
2023/08/05 19:38:45;;;;;;;0.25;0.25;;;;;;;25.49;51.05;99924.69;5063317;28;20045;-71
2023/08/05 19:41:12;;;;;;;0.30;0.30;;;;;;;25.48;51.20;99927.88;5047666;28;20068;-71
2023/08/05 19:43:39;;;;;;;0.20;0.20;;;;;;;25.41;50.98;99931.31;5010693;28;20605;-73
2023/08/05 19:46:06;;;;;;;0.20;0.20;;;;;;;25.39;51.31;99927.28;5048670;28;20670;-72
2023/08/05 19:48:33;;;;;;;0.28;0.28;;;;;;;25.35;51.35;99938.41;5049532;28;20129;-71
2023/08/05 19:51:01;;;;;;;0.30;0.30;;;;;;;25.30;51.98;99935.91;5047570;28;20481;-71
2023/08/05 19:53:27;;;;;;;0.22;0.22;;;;;;;25.28;52.20;99941.06;5046504;28;20397;-72
2023/08/05 19:55:54;;;;;;;0.20;0.20;;;;;;;25.25;52.31;99941.81;5012024;28;20110;-71
2023/08/05 19:58:20;;;;;;;0.20;0.20;;;;;;;25.20;52.43;99945.72;5047663;28;20049;-71
2023/08/05 20:00:50;;;;;;;;;;;;;;;25.15;52.35;99944.03;5050252;28;20156;-70
2023/08/05 20:03:16;;;;;;;0.20;0.20;;;;;;;25.12;52.13;99946.75;5030655;28;20392;-72
2023/08/05 20:05:42;;;;;;;;;;;;;;;25.07;52.75;99953.50;5043883;28;20052;-71
2023/08/05 20:08:10;;;;;;;0.30;0.30;;;;;;;25.04;52.95;99951.41;5045772;28;20445;-75
2023/08/05 20:10:40;;;;;;;0.30;0.30;;;;;;;25.00;53.24;99956.97;5028283;28;20080;-75
2023/08/05 20:13:06;;;;;;;0.20;0.20;;;;;;;24.94;53.29;99952.81;5045202;28;20094;-75
2023/08/05 20:15:32;;;;;;;0.20;0.20;;;;;;;24.90;53.73;99965.94;5049284;28;20516;-72
2023/08/05 20:17:58;;;;;;;0.30;0.30;;;;;;;24.87;53.71;99963.88;5030652;28;20204;-75
2023/08/05 20:20:24;;;;;;;0.20;0.20;;;;;;;24.86;53.89;99976.25;5047871;28;20310;-75
2023/08/05 20:22:51;;;;;;;0.30;0.30;;;;;;;24.82;53.53;99967.78;5029885;28;20794;-76
2023/08/05 20:25:18;;;;;;;0.30;0.30;;;;;;;24.78;54.21;99966.91;5045830;28;20060;-75
2023/08/05 20:27:46;;;;;;;0.30;0.30;;;;;;;24.73;54.16;99965.16;5030284;28;21003;-75
2023/08/05 20:30:13;;;;;;;0.20;0.20;;;;;;;24.71;54.19;99967.53;5046542;28;20512;-76
2023/08/05 20:32:40;;;;;;;0.25;0.25;;;;;;;24.69;54.44;99969.06;5030633;28;20071;-75
2023/08/05 20:35:07;;;;;;;0.20;0.20;;;;;;;24.62;53.87;99964.13;5047707;28;20091;-71
2023/08/05 20:37:33;;;;;;;0.20;0.20;;;;;;;24.62;54.58;99980.91;5029127;28;20056;-71
2023/08/05 20:40:00;;;;;;;0.20;0.20;;;;;;;24.58;54.27;99975.22;5051906;28;20047;-76
2023/08/05 20:42:27;;;;;;;0.20;0.20;;;;;;;24.52;54.76;99967.53;5047840;28;20491;-77
2023/08/05 20:44:53;;;;;;;0.20;0.20;;;;;;;24.54;54.65;99977.13;5043879;28;20059;-76
2023/08/05 20:47:19;;;;;;;0.20;0.20;;;;;;;24.52;54.87;99985.09;5029192;28;20503;-77
2023/08/05 20:49:46;;;;;;;0.20;0.20;;;;;;;24.52;55.28;99984.28;5046345;28;20059;-76
2023/08/05 20:52:12;;;;;;;0.20;0.20;;;;;;;24.47;55.17;99988.97;5043693;28;20076;-69
2023/08/05 20:54:38;;;;;;;0.20;0.20;;;;;;;24.46;55.00;99978.19;5044471;28;20049;-71
2023/08/05 20:57:05;;;;;;;0.30;0.30;;;;;;;24.42;55.31;99978.09;5047659;28;20292;-71
2023/08/05 20:59:32;;;;;;;0.20;0.20;;;;;;;24.40;55.52;99976.81;5044138;28;20067;-70
2023/08/05 21:01:59;;;;;;;0.20;0.20;;;;;;;24.35;55.76;99983.50;5026870;28;20152;-70
2023/08/05 21:04:25;;;;;;;0.20;0.20;;;;;;;24.27;55.81;99978.94;5046134;28;20401;-76
2023/08/05 21:06:53;;;;;;;0.20;0.20;;;;;;;24.24;55.55;99982.47;5046519;28;20515;-75
2023/08/05 21:09:19;;;;;;;0.30;0.30;;;;;;;24.25;56.05;99984.09;5047122;28;20191;-75
2023/08/05 21:11:46;;;;;;;0.20;0.20;;;;;;;24.23;56.04;99983.66;5045839;28;20047;-76
2023/08/05 21:14:12;;;;;;;0.20;0.20;;;;;;;24.20;55.59;99979.59;5026907;28;20663;-76
2023/08/05 21:16:40;;;;;;;0.20;0.20;;;;;;;24.14;55.86;99984.63;5044601;28;20194;-76
2023/08/05 21:19:06;;;;;;;0.20;0.20;;;;;;;24.09;56.23;99984.91;5027598;28;20068;-76
2023/08/05 21:21:32;;;;;;;0.20;0.20;;;;;;;24.09;56.83;99990.50;5026692;28;20048;-75
2023/08/05 21:23:59;;;;;;;0.20;0.20;;;;;;;24.04;56.40;99985.19;5010094;28;20485;-76
2023/08/05 21:26:25;;;;;;;0.20;0.20;;;;;;;24.04;56.66;99987.97;5045544;28;20099;-76
2023/08/05 21:28:51;;;;;;;0.20;0.20;;;;;;;23.98;57.05;99995.81;5046804;28;20476;-76
2023/08/05 21:31:17;;;;;;;0.20;0.20;;;;;;;23.93;56.98;99996.06;5012100;28;20512;-77
2023/08/05 21:33:45;;;;;;;0.13;0.13;;;;;;;23.90;57.23;99999.59;5044524;28;20082;-76
2023/08/05 21:36:11;;;;;;;0.20;0.20;;;;;;;23.84;57.14;99992.66;5045176;28;20049;-76
2023/08/05 21:38:37;;;;;;;0.20;0.20;;;;;;;23.78;57.39;99997.69;5026911;28;20053;-76
2023/08/05 21:41:04;;;;;;;0.27;0.20;;;;;;;23.77;56.70;100004.47;5045964;28;20144;-76
2023/08/05 21:43:30;;;;;;;0.20;0.20;;;;;;;23.75;57.14;99998.44;5044101;28;20052;-77
2023/08/05 21:45:57;;;;;;;0.20;0.20;;;;;;;23.71;57.16;99995.53;5027840;28;20053;-76
2023/08/05 21:48:25;;;;;;;0.20;0.20;;;;;;;23.70;57.71;100004.25;5043461;28;20513;-76
2023/08/05 21:50:52;;;;;;;0.20;0.20;;;;;;;23.67;57.96;100000.22;5010587;28;20060;-76
2023/08/05 21:53:20;;;;;;;0.20;0.20;;;;;;;23.67;57.70;100007.78;5025937;28;20058;-76
2023/08/05 21:55:46;;;;;;;0.20;0.20;;;;;;;23.67;58.06;100016.16;5025213;28;20049;-76
2023/08/05 21:58:13;;;;;;;0.20;0.20;;;;;;;23.69;57.40;100008.22;5046255;28;20052;-77
2023/08/05 22:00:39;;;;;;;0.20;0.20;;;;;;;23.68;57.46;100012.19;5046592;28;20520;-77
2023/08/05 22:03:06;;;;;;;0.20;0.20;;;;;;;23.65;57.74;100017.31;5027917;28;20331;-77
2023/08/05 22:05:32;;;;;;;0.20;0.20;;;;;;;23.64;57.82;100017.66;5042948;28;20676;-76
2023/08/05 22:08:00;;;;;;;0.20;0.20;;;;;;;23.64;57.75;100020.47;5042252;28;20099;-75
2023/08/05 22:10:26;;;;;;;0.20;0.20;;;;;;;23.62;57.92;100017.22;5043214;28;20041;-76
2023/08/05 22:12:52;;;;;;;0.20;0.20;;;;;;;23.60;57.97;100013.97;5045454;28;20470;-76
2023/08/05 22:15:18;;;;;;;0.20;0.20;;;;;;;23.59;58.16;100015.97;5042818;28;20420;-76
2023/08/05 22:17:45;;;;;;;0.20;0.20;;;;;;;23.56;57.93;100010.28;5043613;28;20055;-76
2023/08/05 22:20:12;;;;;;;0.20;0.20;;;;;;;23.54;58.16;100026.59;5027367;28;20095;-76
2023/08/05 22:22:38;;;;;;;0.20;0.20;;;;;;;23.49;58.51;100008.13;5043651;28;20520;-75
2023/08/05 22:25:07;;;;;;;0.20;0.20;;;;;;;23.50;58.26;100026.47;5044909;28;20436;-76
2023/08/05 22:27:33;;;;;;;0.20;0.20;;;;;;;23.46;58.71;100022.78;5027568;28;20049;-76
2023/08/05 22:29:59;;;;;;;0.20;0.20;;;;;;;23.42;58.70;100010.72;5042656;28;20118;-77
2023/08/05 22:32:25;;;;;;;0.20;0.20;;;;;;;23.42;58.77;100021.88;5011150;28;20049;-76
2023/08/05 22:34:53;;;;;;;0.20;0.20;;;;;;;23.40;58.66;100021.41;5045187;28;20148;-76
2023/08/05 22:37:19;;;;;;;0.20;0.20;;;;;;;23.38;59.05;100016.22;5062097;28;20091;-76
2023/08/05 22:39:46;;;;;;;0.20;0.20;;;;;;;23.35;59.57;100014.13;5043711;28;20542;-76
2023/08/05 22:42:13;;;;;;;0.20;0.20;;;;;;;23.32;59.76;100015.66;5044317;28;20067;-77
2023/08/05 22:44:39;;;;;;;0.20;0.20;;;;;;;23.28;60.18;100019.50;5044109;28;20045;-77
2023/08/05 22:47:05;;;;;;;0.25;0.25;;;;;;;23.25;60.46;100017.41;5042374;28;20376;-76
2023/08/05 22:49:32;;;;;;;0.20;0.20;;;;;;;23.19;60.39;100005.69;5040811;28;20060;-76
2023/08/05 22:51:58;;;;;;;0.20;0.20;;;;;;;23.13;61.21;100010.72;5042222;28;20041;-76
2023/08/05 22:54:24;;;;;;;0.20;0.20;;;;;;;23.04;61.53;100015.66;5028477;28;20539;-76
2023/08/05 22:56:51;;;;;;;0.20;0.20;;;;;;;23.01;61.27;100021.91;5042497;28;20076;-75
2023/08/05 22:59:18;;;;;;;0.20;0.20;;;;;;;22.97;61.86;100019.03;5025557;28;20516;-76
2023/08/05 23:01:44;;;;;;;0.20;0.20;;;;;;;22.98;61.80;100017.88;5045602;28;20087;-75
2023/08/05 23:04:11;;;;;;;0.20;0.20;;;;;;;22.97;61.57;100027.41;5044496;28;20040;-75
2023/08/05 23:06:37;;;;;;;0.20;0.20;;;;;;;22.98;61.38;100025.41;5029199;28;20828;-76
2023/08/05 23:09:03;;;;;;;0.20;0.20;;;;;;;22.98;61.41;100019.84;5025934;28;20052;-75
2023/08/05 23:11:29;;;;;;;0.20;0.20;;;;;;;22.96;60.99;100025.78;5048332;28;20304;-75
2023/08/05 23:13:56;;;;;;;0.20;0.20;;;;;;;22.92;61.36;100027.63;5030560;28;20152;-76
2023/08/05 23:16:24;;;;;;;0.20;0.20;;;;;;;22.88;61.44;100029.50;5028500;28;20095;-76
2023/08/05 23:18:50;;;;;;;0.20;0.20;;;;;;;22.89;61.40;100022.75;5048824;28;20052;-76
2023/08/05 23:21:16;;;;;;;0.20;0.20;;;;;;;22.88;61.73;100023.94;5047369;28;20057;-75
2023/08/05 23:23:42;;;;;;;0.20;0.20;;;;;;;22.85;61.87;100028.22;5045103;28;20428;-75
2023/08/05 23:26:09;;;;;;;0.20;0.20;;;;;;;22.82;61.70;100028.94;5048498;28;20056;-75
2023/08/05 23:28:35;;;;;;;0.20;0.20;;;;;;;22.83;62.10;100029.75;5047193;28;20111;-75
2023/08/05 23:31:02;;;;;;;0.20;0.20;;;;;;;22.80;61.80;100020.94;5063763;28;20549;-75
2023/08/05 23:33:30;;;;;;;0.20;0.20;;;;;;;22.82;61.65;100023.38;5050470;28;20045;-75
2023/08/05 23:35:57;;;;;;;0.22;0.22;;;;;;;22.80;61.68;100025.69;5031310;28;20099;-75
2023/08/05 23:38:23;;;;;;;0.20;0.20;;;;;;;22.81;61.99;100018.97;5049439;28;20049;-75
2023/08/05 23:40:50;;;;;;;0.20;0.20;;;;;;;22.82;61.74;100015.00;5047447;28;20067;-75
2023/08/05 23:43:17;;;;;;;0.20;0.20;;;;;;;22.80;61.52;100009.81;5045967;28;20180;-75
2023/08/05 23:45:43;;;;;;;0.20;0.20;;;;;;;22.82;61.92;100017.78;5044732;28;20052;-75
2023/08/05 23:48:09;;;;;;;0.23;0.20;;;;;;;22.84;61.46;100018.25;5049566;28;20045;-76
2023/08/05 23:50:37;;;;;;;0.20;0.20;;;;;;;22.79;61.69;100010.97;5046941;28;20084;-76
2023/08/05 23:53:03;;;;;;;0.20;0.20;;;;;;;22.77;61.69;100015.25;5047592;28;20401;-75
2023/08/05 23:55:30;;;;;;;0.20;0.20;;;;;;;22.77;61.77;100016.06;5046462;28;20114;-76
2023/08/05 23:57:56;;;;;;;;;;;;;;;22.73;61.46;100015.16;5049382;28;20678;-75
